Terminal Aerodrome Forecast
Issued by NWS

Home | Current Version | Previous Version | Text Only | Print | Product List | Glossary On
Versions: 1 2 3 4 5 6 7 8 9 10 11 12 13 14 15 16 17 18 19 20 21 22 23 24
000
FTUS46 KSEW 201743
TAFPAE
TAF
KPAE 201743Z 2018/2118 33007KT P6SM -RA SCT005 OVC040
     FM202000 32010KT 5SM -RA BR BKN006 OVC018
     FM210100 20003KT 4SM -SHRA BR BKN006 OVC012
     FM210600 10005KT P6SM SCT008 BKN015 OVC030
     FM211200 32006KT P6SM SCT012 BKN045=

USA.gov is the U.S. government's official web portal to all federal, state and local government web resources and services.